sensor_id;sensor_type;location;lat;lon;timestamp;pressure;altitude;pressure_sealevel;temperature;humidity
25130;BME280;13308;50.860;13.664;2023-03-15T06:47:18;96426.91;;;1.18;100.00
25130;BME280;13308;50.860;13.664;2023-03-15T06:49:43;96430.88;;;1.24;100.00
25130;BME280;13308;50.860;13.664;2023-03-15T06:52:10;96431.72;;;1.28;100.00
25130;BME280;13308;50.860;13.664;2023-03-15T06:54:36;96426.38;;;1.35;100.00
25130;BME280;13308;50.860;13.664;2023-03-15T06:57:02;96432.34;;;1.44;100.00
25130;BME280;13308;50.860;13.664;2023-03-15T06:59:28;96442.88;;;1.49;100.00
25130;BME280;13308;50.860;13.664;2023-03-15T07:01:53;96445.25;;;1.54;100.00
25130;BME280;13308;50.860;13.664;2023-03-15T07:04:18;96439.09;;;1.57;100.00
25130;BME280;13308;50.860;13.664;2023-03-15T07:06:44;96431.84;;;1.68;100.00
25130;BME280;13308;50.860;13.664;2023-03-15T07:09:09;96440.53;;;1.80;100.00
25130;BME280;13308;50.860;13.664;2023-03-15T07:11:34;96444.81;;;1.81;100.00
25130;BME280;13308;50.860;13.664;2023-03-15T07:14:00;96446.50;;;1.93;100.00
25130;BME280;13308;50.860;13.664;2023-03-15T07:16:25;96448.47;;;1.96;100.00
25130;BME280;13308;50.860;13.664;2023-03-15T07:18:50;96458.22;;;1.97;99.19
25130;BME280;13308;50.860;13.664;2023-03-15T07:21:19;96453.25;;;2.06;99.98
25130;BME280;13308;50.860;13.664;2023-03-15T07:23:45;96460.75;;;2.16;99.79
25130;BME280;13308;50.860;13.664;2023-03-15T07:26:10;96437.47;;;2.18;98.98
25130;BME280;13308;50.860;13.664;2023-03-15T07:28:35;96446.13;;;2.31;99.15
25130;BME280;13308;50.860;13.664;2023-03-15T07:31:02;96441.56;;;2.42;98.76
25130;BME280;13308;50.860;13.664;2023-03-15T07:33:29;96450.28;;;2.58;97.88
25130;BME280;13308;50.860;13.664;2023-03-15T07:35:55;96440.88;;;2.52;97.60
25130;BME280;13308;50.860;13.664;2023-03-15T07:38:23;96450.38;;;2.72;98.85
25130;BME280;13308;50.860;13.664;2023-03-15T07:40:48;96453.16;;;2.79;98.59
25130;BME280;13308;50.860;13.664;2023-03-15T07:43:14;96451.44;;;3.04;96.20
25130;BME280;13308;50.860;13.664;2023-03-15T07:45:40;96453.38;;;3.07;93.66
25130;BME280;13308;50.860;13.664;2023-03-15T07:48:06;96459.19;;;3.05;94.55
25130;BME280;13308;50.860;13.664;2023-03-15T07:50:31;96464.78;;;3.23;92.90
25130;BME280;13308;50.860;13.664;2023-03-15T07:52:56;96459.06;;;3.42;91.72
25130;BME280;13308;50.860;13.664;2023-03-15T07:55:22;96458.34;;;3.52;91.81
25130;BME280;13308;50.860;13.664;2023-03-15T07:57:47;96461.00;;;3.45;89.76
25130;BME280;13308;50.860;13.664;2023-03-15T08:00:13;96467.66;;;3.51;88.59
25130;BME280;13308;50.860;13.664;2023-03-15T08:02:39;96473.75;;;3.98;88.59
25130;BME280;13308;50.860;13.664;2023-03-15T08:05:05;96480.03;;;4.13;85.72
25130;BME280;13308;50.860;13.664;2023-03-15T08:07:31;96480.88;;;4.38;85.20
25130;BME280;13308;50.860;13.664;2023-03-15T08:09:56;96487.19;;;4.98;82.47
25130;BME280;13308;50.860;13.664;2023-03-15T08:12:25;96495.41;;;4.73;80.10
25130;BME280;13308;50.860;13.664;2023-03-15T08:14:51;96489.06;;;4.41;79.08
25130;BME280;13308;50.860;13.664;2023-03-15T08:17:17;96473.56;;;3.60;83.10
25130;BME280;13308;50.860;13.664;2023-03-15T08:19:43;96480.84;;;4.24;82.35
25130;BME280;13308;50.860;13.664;2023-03-15T08:22:08;96475.50;;;4.97;80.41
25130;BME280;13308;50.860;13.664;2023-03-15T08:24:34;96482.13;;;5.17;77.15
25130;BME280;13308;50.860;13.664;2023-03-15T08:27:00;96485.63;;;5.32;76.23
25130;BME280;13308;50.860;13.664;2023-03-15T08:29:25;96496.97;;;5.20;78.62
25130;BME280;13308;50.860;13.664;2023-03-15T08:31:50;96506.66;;;5.70;77.21
25130;BME280;13308;50.860;13.664;2023-03-15T08:34:16;96512.91;;;5.84;77.95
25130;BME280;13308;50.860;13.664;2023-03-15T08:36:41;96503.56;;;5.57;77.39
25130;BME280;13308;50.860;13.664;2023-03-15T08:39:07;96503.16;;;5.83;79.50
25130;BME280;13308;50.860;13.664;2023-03-15T08:41:33;96509.75;;;6.00;77.87
25130;BME280;13308;50.860;13.664;2023-03-15T08:43:59;96503.84;;;6.12;74.92
25130;BME280;13308;50.860;13.664;2023-03-15T08:46:25;96510.63;;;5.27;73.04
25130;BME280;13308;50.860;13.664;2023-03-15T08:48:51;96507.50;;;4.93;72.32
25130;BME280;13308;50.860;13.664;2023-03-15T08:51:16;96520.38;;;4.75;76.58
25130;BME280;13308;50.860;13.664;2023-03-15T08:53:41;96527.66;;;4.40;76.71
25130;BME280;13308;50.860;13.664;2023-03-15T08:56:07;96519.81;;;4.21;79.53
25130;BME280;13308;50.860;13.664;2023-03-15T08:58:33;96528.41;;;4.23;82.15
25130;BME280;13308;50.860;13.664;2023-03-15T09:00:58;96532.28;;;4.22;83.98
25130;BME280;13308;50.860;13.664;2023-03-15T09:03:24;96533.72;;;3.88;84.65
25130;BME280;13308;50.860;13.664;2023-03-15T09:05:49;96544.47;;;3.67;87.51
25130;BME280;13308;50.860;13.664;2023-03-15T09:08:14;96535.75;;;3.40;89.66
25130;BME280;13308;50.860;13.664;2023-03-15T09:10:42;96541.44;;;3.21;91.59
25130;BME280;13308;50.860;13.664;2023-03-15T09:13:08;96545.31;;;3.17;93.64
25130;BME280;13308;50.860;13.664;2023-03-15T09:15:33;96540.31;;;3.26;94.94
25130;BME280;13308;50.860;13.664;2023-03-15T09:17:59;96535.47;;;3.05;94.90
25130;BME280;13308;50.860;13.664;2023-03-15T09:20:24;96529.69;;;3.14;96.76
25130;BME280;13308;50.860;13.664;2023-03-15T09:22:57;96534.00;;;3.18;96.90
25130;BME280;13308;50.860;13.664;2023-03-15T09:25:23;96539.84;;;3.17;97.45
25130;BME280;13308;50.860;13.664;2023-03-15T09:27:48;96548.72;;;3.07;97.79
25130;BME280;13308;50.860;13.664;2023-03-15T09:30:14;96547.88;;;3.03;99.33
25130;BME280;13308;50.860;13.664;2023-03-15T09:32:40;96547.88;;;2.99;99.96
25130;BME280;13308;50.860;13.664;2023-03-15T09:35:07;96553.44;;;3.10;100.00
25130;BME280;13308;50.860;13.664;2023-03-15T09:37:34;96548.00;;;3.13;100.00
25130;BME280;13308;50.860;13.664;2023-03-15T09:39:59;96557.38;;;3.16;100.00
25130;BME280;13308;50.860;13.664;2023-03-15T09:42:34;96551.75;;;2.98;100.00
25130;BME280;13308;50.860;13.664;2023-03-15T09:45:13;96567.38;;;3.05;100.00
25130;BME280;13308;50.860;13.664;2023-03-15T09:47:53;96561.13;;;3.01;100.00
25130;BME280;13308;50.860;13.664;2023-03-15T09:50:28;96561.50;;;3.03;100.00
25130;BME280;13308;50.860;13.664;2023-03-15T09:52:59;96572.88;;;3.12;100.00
25130;BME280;13308;50.860;13.664;2023-03-15T09:55:27;96569.72;;;3.06;100.00
25130;BME280;13308;50.860;13.664;2023-03-15T09:58:03;96590.00;;;3.12;100.00
25130;BME280;13308;50.860;13.664;2023-03-15T10:00:39;96574.56;;;3.27;100.00
25130;BME280;13308;50.860;13.664;2023-03-15T10:03:05;96573.78;;;3.23;100.00
25130;BME280;13308;50.860;13.664;2023-03-15T10:05:43;96564.31;;;3.10;100.00
25130;BME280;13308;50.860;13.664;2023-03-15T10:08:17;96576.06;;;3.21;100.00
25130;BME280;13308;50.860;13.664;2023-03-15T10:10:50;96586.56;;;3.19;100.00
25130;BME280;13308;50.860;13.664;2023-03-15T10:16:30;96591.47;;;3.03;100.00
25130;BME280;13308;50.860;13.664;2023-03-15T10:19:05;96599.34;;;3.11;100.00
25130;BME280;13308;50.860;13.664;2023-03-15T10:21:41;96589.75;;;2.84;100.00
25130;BME280;13308;50.860;13.664;2023-03-15T10:26:58;96589.81;;;2.91;100.00
25130;BME280;13308;50.860;13.664;2023-03-15T10:29:26;96586.03;;;3.03;100.00
25130;BME280;13308;50.860;13.664;2023-03-15T10:31:53;96587.53;;;2.97;100.00
25130;BME280;13308;50.860;13.664;2023-03-15T10:34:18;96585.69;;;2.68;100.00
25130;BME280;13308;50.860;13.664;2023-03-15T10:36:46;96596.72;;;2.82;100.00
25130;BME280;13308;50.860;13.664;2023-03-15T10:39:13;96592.91;;;2.90;100.00
25130;BME280;13308;50.860;13.664;2023-03-15T10:41:44;96589.22;;;3.08;100.00
25130;BME280;13308;50.860;13.664;2023-03-15T10:44:13;96586.28;;;3.31;100.00
25130;BME280;13308;50.860;13.664;2023-03-15T10:46:39;96583.25;;;3.43;100.00
25130;BME280;13308;50.860;13.664;2023-03-15T10:49:13;96594.97;;;3.47;100.00
25130;BME280;13308;50.860;13.664;2023-03-15T10:51:44;96602.75;;;3.45;100.00
25130;BME280;13308;50.860;13.664;2023-03-15T10:54:15;96594.81;;;3.29;100.00
25130;BME280;13308;50.860;13.664;2023-03-15T10:56:58;96595.66;;;3.37;100.00
25130;BME280;13308;50.860;13.664;2023-03-15T10:59:27;96592.22;;;3.40;100.00
25130;BME280;13308;50.860;13.664;2023-03-15T11:02:14;96595.09;;;3.64;100.00
25130;BME280;13308;50.860;13.664;2023-03-15T11:04:47;96594.97;;;3.43;96.94
25130;BME280;13308;50.860;13.664;2023-03-15T11:07:13;96592.25;;;3.47;97.83
25130;BME280;13308;50.860;13.664;2023-03-15T11:09:41;96595.84;;;3.58;99.90
25130;BME280;13308;50.860;13.664;2023-03-15T11:12:29;96595.53;;;3.70;100.00
25130;BME280;13308;50.860;13.664;2023-03-15T11:15:05;96593.53;;;3.63;99.40
25130;BME280;13308;50.860;13.664;2023-03-15T11:17:35;96597.63;;;3.90;99.29
25130;BME280;13308;50.860;13.664;2023-03-15T11:23:32;96588.56;;;4.58;95.74
25130;BME280;13308;50.860;13.664;2023-03-15T11:25:58;96602.75;;;4.95;94.92
25130;BME280;13308;50.860;13.664;2023-03-15T11:28:28;96594.94;;;5.00;93.89
25130;BME280;13308;50.860;13.664;2023-03-15T11:30:57;96597.66;;;4.90;91.53
25130;BME280;13308;50.860;13.664;2023-03-15T11:33:54;96595.66;;;4.69;92.09
25130;BME280;13308;50.860;13.664;2023-03-15T11:36:23;96606.97;;;4.71;91.19
25130;BME280;13308;50.860;13.664;2023-03-15T11:38:50;96606.94;;;4.57;90.89
25130;BME280;13308;50.860;13.664;2023-03-15T11:44:22;96608.13;;;4.67;90.39
25130;BME280;13308;50.860;13.664;2023-03-15T11:46:56;96601.88;;;4.66;89.88
25130;BME280;13308;50.860;13.664;2023-03-15T11:49:32;96598.03;;;4.78;90.88
25130;BME280;13308;50.860;13.664;2023-03-15T11:51:59;96597.63;;;4.76;89.30
25130;BME280;13308;50.860;13.664;2023-03-15T11:54:28;96596.88;;;5.00;89.77
25130;BME280;13308;50.860;13.664;2023-03-15T11:59:37;96601.09;;;4.62;90.69
25130;BME280;13308;50.860;13.664;2023-03-15T12:09:46;96595.16;;;4.39;91.64
25130;BME280;13308;50.860;13.664;2023-03-15T12:15:15;96591.72;;;4.60;91.89
25130;BME280;13308;50.860;13.664;2023-03-15T12:17:57;96591.75;;;4.70;89.89
25130;BME280;13308;50.860;13.664;2023-03-15T12:20:40;96591.78;;;4.77;87.74
25130;BME280;13308;50.860;13.664;2023-03-15T12:25:54;96591.75;;;4.67;85.66
25130;BME280;13308;50.860;13.664;2023-03-15T12:28:25;96589.41;;;4.69;86.68
25130;BME280;13308;50.860;13.664;2023-03-15T12:30:57;96576.19;;;4.95;87.72
25130;BME280;13308;50.860;13.664;2023-03-15T12:33:26;96581.31;;;5.46;84.74
25130;BME280;13308;50.860;13.664;2023-03-15T12:36:07;96590.25;;;6.13;83.26
25130;BME280;13308;50.860;13.664;2023-03-15T12:38:38;96592.53;;;7.18;78.83
25130;BME280;13308;50.860;13.664;2023-03-15T12:41:32;96587.56;;;7.57;75.53
25130;BME280;13308;50.860;13.664;2023-03-15T12:51:53;96598.75;;;7.29;70.14
25130;BME280;13308;50.860;13.664;2023-03-15T12:54:19;96594.97;;;7.02;75.01
25130;BME280;13308;50.860;13.664;2023-03-15T12:56:47;96604.56;;;6.73;78.14
25130;BME280;13308;50.860;13.664;2023-03-15T12:59:28;96638.78;;;5.88;83.85
25130;BME280;13308;50.860;13.664;2023-03-15T13:01:57;96636.41;;;5.41;89.76
25130;BME280;13308;50.860;13.664;2023-03-15T13:04:25;96638.72;;;5.18;91.40
25130;BME280;13308;50.860;13.664;2023-03-15T13:09:54;96632.25;;;4.51;94.96
25130;BME280;13308;50.860;13.664;2023-03-15T13:12:28;96636.97;;;4.61;95.89
25130;BME280;13308;50.860;13.664;2023-03-15T13:15:05;96640.06;;;4.56;96.41
25130;BME280;13308;50.860;13.664;2023-03-15T13:17:46;96644.63;;;4.31;98.95
25130;BME280;13308;50.860;13.664;2023-03-15T13:23:19;96655.47;;;3.63;100.00
25130;BME280;13308;50.860;13.664;2023-03-15T13:28:24;96661.69;;;2.80;100.00
25130;BME280;13308;50.860;13.664;2023-03-15T13:30:53;96671.06;;;2.23;100.00
25130;BME280;13308;50.860;13.664;2023-03-15T13:33:26;96675.31;;;2.21;100.00
25130;BME280;13308;50.860;13.664;2023-03-15T13:36:13;96673.94;;;2.08;100.00
25130;BME280;13308;50.860;13.664;2023-03-15T13:38:42;96667.94;;;1.95;100.00
25130;BME280;13308;50.860;13.664;2023-03-15T13:41:34;96650.84;;;1.69;100.00
25130;BME280;13308;50.860;13.664;2023-03-15T13:44:06;96636.50;;;1.72;100.00
25130;BME280;13308;50.860;13.664;2023-03-15T13:46:36;96627.59;;;2.01;100.00
25130;BME280;13308;50.860;13.664;2023-03-15T13:49:02;96634.59;;;2.02;100.00
25130;BME280;13308;50.860;13.664;2023-03-15T13:51:31;96628.09;;;2.06;100.00
25130;BME280;13308;50.860;13.664;2023-03-15T13:54:06;96634.13;;;2.52;100.00
25130;BME280;13308;50.860;13.664;2023-03-15T13:56:38;96636.06;;;2.55;100.00
25130;BME280;13308;50.860;13.664;2023-03-15T13:59:08;96639.22;;;2.57;100.00
25130;BME280;13308;50.860;13.664;2023-03-15T14:01:37;96639.88;;;2.47;100.00
25130;BME280;13308;50.860;13.664;2023-03-15T14:04:07;96645.47;;;2.61;100.00
25130;BME280;13308;50.860;13.664;2023-03-15T14:06:34;96646.75;;;2.37;100.00
25130;BME280;13308;50.860;13.664;2023-03-15T14:09:06;96652.59;;;2.69;100.00
25130;BME280;13308;50.860;13.664;2023-03-15T14:11:37;96651.84;;;2.72;100.00
25130;BME280;13308;50.860;13.664;2023-03-15T14:14:25;96652.03;;;2.86;100.00
25130;BME280;13308;50.860;13.664;2023-03-15T14:16:52;96661.41;;;2.92;100.00
25130;BME280;13308;50.860;13.664;2023-03-15T14:19:21;96657.59;;;3.00;100.00
25130;BME280;13308;50.860;13.664;2023-03-15T14:22:13;96658.69;;;3.32;100.00
25130;BME280;13308;50.860;13.664;2023-03-15T14:24:43;96664.63;;;3.01;100.00
25130;BME280;13308;50.860;13.664;2023-03-15T14:27:15;96664.66;;;3.04;100.00
25130;BME280;13308;50.860;13.664;2023-03-15T14:29:50;96672.44;;;3.06;100.00
25130;BME280;13308;50.860;13.664;2023-03-15T14:32:23;96669.50;;;3.61;100.00
25130;BME280;13308;50.860;13.664;2023-03-15T14:34:49;96666.75;;;4.12;96.57
25130;BME280;13308;50.860;13.664;2023-03-15T14:37:37;96674.13;;;4.08;95.45
25130;BME280;13308;50.860;13.664;2023-03-15T14:40:15;96664.28;;;3.93;97.01
25130;BME280;13308;50.860;13.664;2023-03-15T14:42:41;96670.19;;;4.05;99.24
25130;BME280;13308;50.860;13.664;2023-03-15T14:45:07;96673.09;;;5.19;94.68
25130;BME280;13308;50.860;13.664;2023-03-15T14:47:36;96678.47;;;4.98;92.02
25130;BME280;13308;50.860;13.664;2023-03-15T14:50:11;96673.63;;;4.56;91.39
25130;BME280;13308;50.860;13.664;2023-03-15T14:52:37;96678.34;;;4.70;91.18
25130;BME280;13308;50.860;13.664;2023-03-15T14:55:02;96677.72;;;4.19;94.87
25130;BME280;13308;50.860;13.664;2023-03-15T14:57:28;96675.28;;;4.07;96.05
25130;BME280;13308;50.860;13.664;2023-03-15T14:59:53;96677.84;;;3.86;96.11
25130;BME280;13308;50.860;13.664;2023-03-15T15:02:19;96678.97;;;3.78;95.85
25130;BME280;13308;50.860;13.664;2023-03-15T15:04:44;96680.72;;;3.53;97.93
25130;BME280;13308;50.860;13.664;2023-03-15T15:07:13;96669.38;;;3.98;99.11
25130;BME280;13308;50.860;13.664;2023-03-15T15:09:43;96679.22;;;4.09;98.57
25130;BME280;13308;50.860;13.664;2023-03-15T15:12:10;96674.31;;;4.36;97.15
25130;BME280;13308;50.860;13.664;2023-03-15T15:14:35;96680.31;;;4.66;96.41
25130;BME280;13308;50.860;13.664;2023-03-15T15:17:01;96678.78;;;4.72;96.09
25130;BME280;13308;50.860;13.664;2023-03-15T15:19:27;96681.56;;;4.82;94.76
25130;BME280;13308;50.860;13.664;2023-03-15T15:21:52;96681.69;;;5.28;95.25
25130;BME280;13308;50.860;13.664;2023-03-15T15:24:19;96681.69;;;5.28;92.56
25130;BME280;13308;50.860;13.664;2023-03-15T15:26:45;96684.00;;;5.12;93.62
25130;BME280;13308;50.860;13.664;2023-03-15T15:29:13;96692.44;;;4.72;96.24
25130;BME280;13308;50.860;13.664;2023-03-15T15:31:39;96696.94;;;4.43;96.86
25130;BME280;13308;50.860;13.664;2023-03-15T15:34:04;96693.63;;;4.10;98.53
25130;BME280;13308;50.860;13.664;2023-03-15T15:36:38;96696.66;;;3.98;100.00
25130;BME280;13308;50.860;13.664;2023-03-15T15:39:15;96695.38;;;3.85;100.00
25130;BME280;13308;50.860;13.664;2023-03-15T15:41:41;96695.00;;;3.86;100.00
25130;BME280;13308;50.860;13.664;2023-03-15T15:44:18;96697.56;;;3.69;100.00
25130;BME280;13308;50.860;13.664;2023-03-15T15:46:44;96694.63;;;3.41;100.00
25130;BME280;13308;50.860;13.664;2023-03-15T15:49:09;96694.94;;;3.36;100.00
25130;BME280;13308;50.860;13.664;2023-03-15T15:51:38;96700.72;;;3.31;100.00
25130;BME280;13308;50.860;13.664;2023-03-15T15:54:12;96704.63;;;3.30;100.00
25130;BME280;13308;50.860;13.664;2023-03-15T15:56:44;96700.09;;;3.08;100.00
25130;BME280;13308;50.860;13.664;2023-03-15T15:59:13;96703.16;;;3.03;100.00
25130;BME280;13308;50.860;13.664;2023-03-15T16:01:39;96706.91;;;3.24;100.00
25130;BME280;13308;50.860;13.664;2023-03-15T16:04:05;96713.31;;;3.42;100.00
25130;BME280;13308;50.860;13.664;2023-03-15T16:06:31;96711.03;;;3.48;100.00
25130;BME280;13308;50.860;13.664;2023-03-15T16:08:57;96717.97;;;3.42;100.00
25130;BME280;13308;50.860;13.664;2023-03-15T16:11:22;96719.44;;;3.32;100.00
25130;BME280;13308;50.860;13.664;2023-03-15T16:13:49;96716.94;;;3.17;100.00
25130;BME280;13308;50.860;13.664;2023-03-15T16:16:16;96721.88;;;3.08;100.00
25130;BME280;13308;50.860;13.664;2023-03-15T16:18:42;96724.19;;;3.02;100.00
25130;BME280;13308;50.860;13.664;2023-03-15T16:21:14;96721.38;;;2.95;100.00
25130;BME280;13308;50.860;13.664;2023-03-15T16:23:41;96722.03;;;2.85;100.00
25130;BME280;13308;50.860;13.664;2023-03-15T16:26:09;96729.75;;;2.80;100.00
25130;BME280;13308;50.860;13.664;2023-03-15T16:28:37;96732.00;;;2.74;100.00
25130;BME280;13308;50.860;13.664;2023-03-15T16:31:03;96736.94;;;2.65;100.00
25130;BME280;13308;50.860;13.664;2023-03-15T16:33:28;96731.78;;;2.57;100.00
25130;BME280;13308;50.860;13.664;2023-03-15T16:35:53;96742.09;;;2.44;100.00
25130;BME280;13308;50.860;13.664;2023-03-15T16:38:20;96742.44;;;2.43;100.00
25130;BME280;13308;50.860;13.664;2023-03-15T16:40:51;96755.09;;;2.32;100.00
25130;BME280;13308;50.860;13.664;2023-03-15T16:43:17;96752.72;;;2.27;100.00
25130;BME280;13308;50.860;13.664;2023-03-15T16:45:43;96752.28;;;2.25;100.00
25130;BME280;13308;50.860;13.664;2023-03-15T16:48:09;96760.75;;;2.20;100.00
25130;BME280;13308;50.860;13.664;2023-03-15T16:50:36;96765.53;;;2.26;100.00
25130;BME280;13308;50.860;13.664;2023-03-15T16:53:04;96768.16;;;2.19;100.00
25130;BME280;13308;50.860;13.664;2023-03-15T16:55:31;96765.75;;;2.14;100.00
25130;BME280;13308;50.860;13.664;2023-03-15T16:57:58;96771.63;;;2.20;100.00
25130;BME280;13308;50.860;13.664;2023-03-15T17:00:25;96775.75;;;2.10;100.00
25130;BME280;13308;50.860;13.664;2023-03-15T17:02:51;96783.81;;;2.03;100.00
25130;BME280;13308;50.860;13.664;2023-03-15T17:05:17;96793.78;;;1.96;100.00
25130;BME280;13308;50.860;13.664;2023-03-15T17:07:46;96792.84;;;1.85;100.00
25130;BME280;13308;50.860;13.664;2023-03-15T17:10:26;96790.31;;;1.73;100.00
25130;BME280;13308;50.860;13.664;2023-03-15T17:12:53;96799.47;;;1.65;100.00
25130;BME280;13308;50.860;13.664;2023-03-15T17:15:21;96807.06;;;1.56;100.00
25130;BME280;13308;50.860;13.664;2023-03-15T17:17:48;96802.63;;;1.48;100.00
25130;BME280;13308;50.860;13.664;2023-03-15T17:20:15;96807.09;;;1.37;100.00
25130;BME280;13308;50.860;13.664;2023-03-15T17:22:46;96806.13;;;1.26;100.00
25130;BME280;13308;50.860;13.664;2023-03-15T17:25:13;96811.31;;;1.15;100.00
25130;BME280;13308;50.860;13.664;2023-03-15T17:27:41;96821.56;;;1.03;100.00
25130;BME280;13308;50.860;13.664;2023-03-15T17:30:20;96822.09;;;0.93;100.00
25130;BME280;13308;50.860;13.664;2023-03-15T17:32:46;96826.59;;;0.85;100.00
25130;BME280;13308;50.860;13.664;2023-03-15T17:35:13;96831.59;;;0.83;100.00
25130;BME280;13308;50.860;13.664;2023-03-15T17:37:39;96836.44;;;0.74;100.00
25130;BME280;13308;50.860;13.664;2023-03-15T17:40:29;96845.47;;;0.63;100.00
25130;BME280;13308;50.860;13.664;2023-03-15T17:42:57;96837.19;;;0.56;100.00
25130;BME280;13308;50.860;13.664;2023-03-15T17:45:28;96841.47;;;0.57;100.00
25130;BME280;13308;50.860;13.664;2023-03-15T17:47:55;96842.88;;;0.51;100.00
25130;BME280;13308;50.860;13.664;2023-03-15T17:50:25;96850.44;;;0.42;100.00
25130;BME280;13308;50.860;13.664;2023-03-15T17:53:02;96862.94;;;0.31;100.00
25130;BME280;13308;50.860;13.664;2023-03-15T17:55:29;96863.22;;;0.26;100.00
25130;BME280;13308;50.860;13.664;2023-03-15T17:57:58;96865.31;;;0.17;100.00
25130;BME280;13308;50.860;13.664;2023-03-15T18:00:23;96874.16;;;0.14;100.00
25130;BME280;13308;50.860;13.664;2023-03-15T18:02:49;96871.34;;;0.10;100.00
25130;BME280;13308;50.860;13.664;2023-03-15T18:05:21;96868.97;;;0.09;100.00
25130;BME280;13308;50.860;13.664;2023-03-15T18:07:47;96872.41;;;0.06;100.00
25130;BME280;13308;50.860;13.664;2023-03-15T18:10:15;96886.66;;;0.03;100.00
25130;BME280;13308;50.860;13.664;2023-03-15T18:12:43;96886.47;;;-0.04;100.00
25130;BME280;13308;50.860;13.664;2023-03-15T18:15:11;96885.16;;;-0.10;100.00
25130;BME280;13308;50.860;13.664;2023-03-15T18:17:36;96893.19;;;-0.13;100.00
25130;BME280;13308;50.860;13.664;2023-03-15T18:20:02;96899.19;;;-0.20;100.00
25130;BME280;13308;50.860;13.664;2023-03-15T18:22:29;96896.75;;;-0.25;100.00
25130;BME280;13308;50.860;13.664;2023-03-15T18:24:54;96899.69;;;-0.30;100.00
25130;BME280;13308;50.860;13.664;2023-03-15T18:27:20;96900.41;;;-0.33;100.00
25130;BME280;13308;50.860;13.664;2023-03-15T18:29:45;96897.59;;;-0.36;100.00
25130;BME280;13308;50.860;13.664;2023-03-15T18:32:10;96892.53;;;-0.38;100.00
25130;BME280;13308;50.860;13.664;2023-03-15T18:34:36;96900.41;;;-0.33;100.00
25130;BME280;13308;50.860;13.664;2023-03-15T18:37:02;96903.13;;;-0.33;100.00
25130;BME280;13308;50.860;13.664;2023-03-15T18:39:27;96908.97;;;-0.31;100.00
25130;BME280;13308;50.860;13.664;2023-03-15T18:41:53;96914.47;;;-0.28;100.00
25130;BME280;13308;50.860;13.664;2023-03-15T18:44:18;96905.91;;;-0.29;100.00
25130;BME280;13308;50.860;13.664;2023-03-15T18:46:44;96906.81;;;-0.25;100.00
25130;BME280;13308;50.860;13.664;2023-03-15T18:49:09;96906.72;;;-0.29;100.00
25130;BME280;13308;50.860;13.664;2023-03-15T18:51:34;96910.53;;;-0.30;100.00
25130;BME280;13308;50.860;13.664;2023-03-15T18:54:01;96915.19;;;-0.30;100.00
25130;BME280;13308;50.860;13.664;2023-03-15T18:56:28;96915.09;;;-0.34;100.00
25130;BME280;13308;50.860;13.664;2023-03-15T18:58:59;96911.81;;;-0.39;100.00
25130;BME280;13308;50.860;13.664;2023-03-15T19:01:25;96928.34;;;-0.44;100.00
25130;BME280;13308;50.860;13.664;2023-03-15T19:03:51;96917.84;;;-0.46;100.00
25130;BME280;13308;50.860;13.664;2023-03-15T19:06:17;96920.47;;;-0.49;100.00
25130;BME280;13308;50.860;13.664;2023-03-15T19:08:43;96927.34;;;-0.52;100.00
25130;BME280;13308;50.860;13.664;2023-03-15T19:11:08;96930.25;;;-0.45;100.00
25130;BME280;13308;50.860;13.664;2023-03-15T19:13:35;96934.88;;;-0.45;100.00
25130;BME280;13308;50.860;13.664;2023-03-15T19:16:01;96931.09;;;-0.56;100.00
25130;BME280;13308;50.860;13.664;2023-03-15T19:18:27;96941.13;;;-0.57;100.00
25130;BME280;13308;50.860;13.664;2023-03-15T19:20:53;96949.06;;;-0.64;100.00
25130;BME280;13308;50.860;13.664;2023-03-15T19:23:19;96952.44;;;-0.67;100.00
25130;BME280;13308;50.860;13.664;2023-03-15T19:25:46;96953.56;;;-0.68;100.00
25130;BME280;13308;50.860;13.664;2023-03-15T19:28:11;96957.63;;;-0.62;100.00
